Time;durP1;ratioP1;P1;durP2;ratioP2;P2;SDS_P1;SDS_P2;PMS_P1;PMS_P2;Temp;Humidity;BMP_temperature;BMP_pressure;BME280_temperature;BME280_humidity;BME280_pressure;Samples;Min_cycle;Max_cycle;Signal;HPM_P1;HPM_P2
2023/05/26 00:00:06;;;;;;;23.48;19.15;;;20.90;1.00;;;;;;5050152;28;20028;-47
2023/05/26 00:02:39;;;;;;;22.85;19.77;;;20.80;1.00;;;;;;5053921;28;20025;-49
2023/05/26 00:05:06;;;;;;;21.15;19.08;;;20.90;1.00;;;;;;5055146;28;20479;-47
2023/05/26 00:07:32;;;;;;;21.83;19.40;;;20.90;1.00;;;;;;5053125;28;20051;-45
2023/05/26 00:09:58;;;;;;;25.35;20.65;;;20.90;1.00;;;;;;5043841;28;20021;-44
2023/05/26 00:12:24;;;;;;;22.73;19.15;;;20.80;1.00;;;;;;5055327;28;20021;-47
2023/05/26 00:14:50;;;;;;;28.20;20.15;;;20.90;1.00;;;;;;5053434;28;20028;-47
2023/05/26 00:17:16;;;;;;;25.27;21.30;;;20.90;1.00;;;;;;5055791;28;20074;-44
2023/05/26 00:19:43;;;;;;;27.60;21.08;;;20.90;1.00;;;;;;5053724;28;20029;-46
2023/05/26 00:22:10;;;;;;;29.58;21.92;;;20.70;1.00;;;;;;5055739;28;20025;-46
2023/05/26 00:24:36;;;;;;;22.92;20.00;;;20.80;1.00;;;;;;5054552;28;20055;-49
2023/05/26 00:27:02;;;;;;;21.10;18.17;;;20.80;1.00;;;;;;5055819;28;20033;-51
2023/05/26 00:29:28;;;;;;;20.23;18.00;;;20.70;1.00;;;;;;5053415;28;20426;-52
2023/05/26 00:31:53;;;;;;;22.48;20.08;;;20.80;1.00;;;;;;5055594;28;20364;-50
2023/05/26 00:34:19;;;;;;;24.13;20.23;;;20.70;1.00;;;;;;5053005;28;20067;-49
2023/05/26 00:36:46;;;;;;;27.05;20.95;;;20.70;1.00;;;;;;5044271;28;20506;-49
2023/05/26 00:39:12;;;;;;;24.30;21.27;;;20.70;1.00;;;;;;5050507;28;20487;-47
2023/05/26 00:41:37;;;;;;;21.63;19.10;;;20.60;1.00;;;;;;5043598;28;20029;-45
2023/05/26 00:44:03;;;;;;;23.25;20.45;;;20.60;1.00;;;;;;5055078;28;20083;-45
2023/05/26 00:46:30;;;;;;;23.35;20.90;;;20.30;1.00;;;;;;5053170;28;20031;-46
2023/05/26 00:48:56;;;;;;;27.90;21.33;;;20.40;1.00;;;;;;5052892;28;20059;-48
2023/05/26 00:51:22;;;;;;;26.95;22.38;;;20.50;1.00;;;;;;5055386;28;20029;-51
2023/05/26 00:53:48;;;;;;;23.17;19.92;;;20.30;1.00;;;;;;5053868;28;20102;-45
2023/05/26 00:56:18;;;;;;;26.98;21.13;;;20.50;1.00;;;;;;5055133;28;20021;-45
2023/05/26 00:58:44;;;;;;;25.58;21.50;;;20.50;1.00;;;;;;5054226;28;20529;-47
2023/05/26 01:01:12;;;;;;;23.60;21.08;;;20.50;1.00;;;;;;5051788;28;20025;-52
2023/05/26 01:03:38;;;;;;;25.30;21.95;;;20.50;1.00;;;;;;5042367;28;20105;-45
2023/05/26 01:06:05;;;;;;;25.17;21.85;;;20.40;1.00;;;;;;5052585;28;20047;-49
2023/05/26 01:08:31;;;;;;;29.80;23.25;;;20.30;1.00;;;;;;5054169;28;20021;-45
2023/05/26 01:11:08;;;;;;;26.92;22.25;;;20.30;1.00;;;;;;5048556;28;20029;-48
2023/05/26 01:13:51;;;;;;;25.65;23.05;;;20.30;1.00;;;;;;5053504;28;20112;-46
2023/05/26 01:16:21;;;;;;;26.17;21.50;;;20.20;1.00;;;;;;5050393;28;20075;-45
2023/05/26 01:19:16;;;;;;;28.02;23.13;;;20.30;1.00;;;;;;5042799;28;20467;-46
2023/05/26 01:21:46;;;;;;;26.63;23.38;;;20.30;1.00;;;;;;5050588;28;20044;-46
2023/05/26 01:24:39;;;;;;;26.73;23.50;;;20.20;1.00;;;;;;5051833;28;20037;-45
2023/05/26 01:27:38;;;;;;;26.92;23.25;;;20.10;1.00;;;;;;5053485;28;20079;-48
2023/05/26 01:30:05;;;;;;;25.88;23.02;;;20.20;1.00;;;;;;5053186;28;20111;-46
2023/05/26 01:32:31;;;;;;;30.52;24.33;;;20.20;1.00;;;;;;5053678;28;20029;-45
2023/05/26 01:34:56;;;;;;;26.60;22.63;;;20.20;1.00;;;;;;5051287;28;20093;-47
2023/05/26 01:37:22;;;;;;;29.08;23.25;;;20.20;1.00;;;;;;5051459;28;20399;-48
2023/05/26 01:39:48;;;;;;;31.25;24.25;;;20.20;1.00;;;;;;5051346;28;20479;-46
2023/05/26 01:42:23;;;;;;;28.23;24.00;;;20.10;1.00;;;;;;5053746;28;20021;-45
2023/05/26 01:45:04;;;;;;;27.02;24.15;;;20.10;1.00;;;;;;5042873;28;20151;-44
2023/05/26 01:47:31;;;;;;;29.80;23.83;;;20.10;1.00;;;;;;5054391;28;20494;-48
2023/05/26 01:50:01;;;;;;;29.15;24.73;;;20.20;1.00;;;;;;5051123;28;20029;-49
2023/05/26 01:52:27;;;;;;;27.58;23.88;;;20.10;1.00;;;;;;5054365;28;20064;-44
2023/05/26 01:54:59;;;;;;;26.55;23.67;;;20.10;1.00;;;;;;5053153;28;20021;-45
2023/05/26 01:57:28;;;;;;;28.63;23.63;;;20.10;1.00;;;;;;5054306;28;20028;-47
2023/05/26 01:59:55;;;;;;;28.92;24.20;;;20.10;1.00;;;;;;5053099;28;20498;-45
2023/05/26 02:02:21;;;;;;;28.27;23.95;;;20.10;1.00;;;;;;5054261;28;20048;-47
2023/05/26 02:04:46;;;;;;;28.15;22.73;;;20.10;1.00;;;;;;5052226;28;20470;-49
2023/05/26 02:07:12;;;;;;;27.40;23.83;;;20.10;1.00;;;;;;5051711;28;20430;-45
2023/05/26 02:09:38;;;;;;;27.52;24.05;;;20.10;1.00;;;;;;5052787;28;20037;-46
2023/05/26 02:12:06;;;;;;;27.35;22.98;;;20.10;1.00;;;;;;5052025;28;20079;-47
2023/05/26 02:14:31;;;;;;;28.13;24.75;;;20.20;1.00;;;;;;5053605;28;20016;-45
2023/05/26 02:16:57;;;;;;;30.48;25.17;;;20.10;1.00;;;;;;5051913;28;20573;-46
2023/05/26 02:19:25;;;;;;;27.20;24.30;;;20.00;1.00;;;;;;5053577;28;20032;-44
2023/05/26 02:21:50;;;;;;;32.58;24.50;;;19.90;1.00;;;;;;5052922;28;20040;-45
2023/05/26 02:24:16;;;;;;;27.63;24.52;;;20.00;1.00;;;;;;5052167;28;20033;-46
2023/05/26 02:26:42;;;;;;;31.13;26.42;;;20.00;1.00;;;;;;5050293;28;20056;-44
2023/05/26 02:29:08;;;;;;;31.20;25.95;;;19.90;1.00;;;;;;5053346;28;20506;-47
2023/05/26 02:31:34;;;;;;;30.20;25.00;;;19.80;1.00;;;;;;5045683;28;20032;-44
2023/05/26 02:34:01;;;;;;;29.58;24.00;;;19.80;1.00;;;;;;5053343;28;20506;-44
2023/05/26 02:36:27;;;;;;;27.27;22.42;;;19.90;1.00;;;;;;5052627;28;20043;-44
2023/05/26 02:38:52;;;;;;;28.73;24.75;;;19.80;1.00;;;;;;5052970;28;20343;-45
2023/05/26 02:41:18;;;;;;;28.40;25.30;;;19.90;1.00;;;;;;5050825;28;20531;-44
2023/05/26 02:43:44;;;;;;;36.50;26.33;;;19.90;1.00;;;;;;5052397;28;20108;-45
2023/05/26 02:46:09;;;;;;;29.75;25.83;;;19.90;1.00;;;;;;5051013;28;20045;-47
2023/05/26 02:48:35;;;;;;;30.30;24.58;;;19.90;1.00;;;;;;5052292;28;20024;-47
2023/05/26 02:51:01;;;;;;;29.98;25.15;;;19.90;1.00;;;;;;5051791;28;20029;-48
2023/05/26 02:53:27;;;;;;;29.60;24.83;;;19.90;1.00;;;;;;5053363;28;20427;-46
2023/05/26 02:55:52;;;;;;;30.02;25.50;;;19.90;1.00;;;;;;5052038;28;20041;-44
2023/05/26 02:58:19;;;;;;;27.75;24.45;;;19.80;1.00;;;;;;5051446;28;20104;-51
2023/05/26 03:00:45;;;;;;;31.00;24.60;;;19.90;1.00;;;;;;5051963;28;20071;-52
2023/05/26 03:03:11;;;;;;;28.00;23.90;;;19.90;1.00;;;;;;5052935;28;20024;-51
2023/05/26 03:05:37;;;;;;;27.98;23.60;;;19.90;1.00;;;;;;5052115;28;20037;-44
2023/05/26 03:08:03;;;;;;;27.40;24.48;;;19.90;1.00;;;;;;5051590;28;20029;-45
2023/05/26 03:10:29;;;;;;;28.80;25.45;;;19.80;1.00;;;;;;5050194;28;20020;-44
2023/05/26 03:12:55;;;;;;;29.08;25.80;;;19.80;1.00;;;;;;5050835;28;20490;-48
2023/05/26 03:15:22;;;;;;;26.83;23.77;;;19.80;1.00;;;;;;5052946;28;20027;-45
2023/05/26 03:17:47;;;;;;;28.25;24.35;;;19.80;1.00;;;;;;5050685;28;20029;-46
2023/05/26 03:20:13;;;;;;;28.95;25.25;;;19.80;1.00;;;;;;5051775;28;20032;-46
2023/05/26 03:22:38;;;;;;;31.63;27.13;;;19.80;1.00;;;;;;5051893;28;20400;-46
2023/05/26 03:25:05;;;;;;;32.03;26.05;;;19.80;1.00;;;;;;5052599;28;20124;-47
2023/05/26 03:27:31;;;;;;;30.20;25.23;;;19.70;1.00;;;;;;5051828;28;20028;-47
2023/05/26 03:29:57;;;;;;;28.88;23.17;;;19.70;1.00;;;;;;5050427;28;20065;-48
2023/05/26 03:32:23;;;;;;;29.10;25.27;;;19.80;1.00;;;;;;5046069;28;20053;-48
2023/05/26 03:34:48;;;;;;;30.45;25.17;;;19.70;1.00;;;;;;5051863;28;20167;-49
2023/05/26 03:37:15;;;;;;;30.20;24.85;;;19.80;1.00;;;;;;5056577;28;20032;-46
2023/05/26 03:39:41;;;;;;;28.65;24.67;;;19.70;1.00;;;;;;5054551;28;20051;-47
2023/05/26 03:42:08;;;;;;;31.67;25.77;;;19.70;1.00;;;;;;5055386;28;20137;-48
2023/05/26 03:44:34;;;;;;;30.63;24.23;;;19.70;1.00;;;;;;5056428;28;20033;-45
2023/05/26 03:47:00;;;;;;;32.20;25.52;;;19.70;1.00;;;;;;5051694;28;20079;-47
2023/05/26 03:49:26;;;;;;;29.70;25.45;;;19.80;1.00;;;;;;5056413;28;20036;-46
2023/05/26 03:51:51;;;;;;;29.38;24.85;;;19.80;1.00;;;;;;5049863;28;20017;-45
2023/05/26 03:54:17;;;;;;;27.98;23.70;;;19.80;1.00;;;;;;5039557;28;20026;-46
2023/05/26 03:56:42;;;;;;;30.38;25.88;;;19.80;1.00;;;;;;5055131;28;20029;-46
2023/05/26 03:59:08;;;;;;;29.40;25.60;;;19.80;1.00;;;;;;5053812;28;20040;-44
2023/05/26 04:01:36;;;;;;;30.25;25.05;;;19.70;1.00;;;;;;5052983;28;20067;-44
2023/05/26 04:04:02;;;;;;;29.35;25.85;;;19.70;1.00;;;;;;5053929;28;20111;-45
2023/05/26 04:06:28;;;;;;;30.08;25.88;;;19.70;1.00;;;;;;5054163;28;20040;-44
2023/05/26 04:08:54;;;;;;;30.70;26.45;;;19.70;1.00;;;;;;5054255;28;20531;-45
2023/05/26 04:11:21;;;;;;;32.53;25.98;;;19.60;1.00;;;;;;5052200;28;20024;-45
2023/05/26 04:13:47;;;;;;;33.00;25.52;;;19.60;1.00;;;;;;5056211;28;20021;-48
2023/05/26 04:16:12;;;;;;;30.60;25.70;;;19.60;1.00;;;;;;5054079;28;20044;-45
2023/05/26 04:18:40;;;;;;;32.75;27.15;;;19.60;1.00;;;;;;5054624;28;20033;-45
2023/05/26 04:21:05;;;;;;;34.10;27.25;;;19.60;1.00;;;;;;5052514;28;20029;-49
2023/05/26 04:23:31;;;;;;;33.75;28.08;;;19.60;1.00;;;;;;5053074;28;20087;-45
2023/05/26 04:25:57;;;;;;;33.17;26.55;;;19.50;1.00;;;;;;5056066;28;20045;-45
2023/05/26 04:28:24;;;;;;;33.45;26.20;;;19.50;1.00;;;;;;5053720;28;20043;-50
2023/05/26 04:30:50;;;;;;;32.53;25.67;;;19.50;1.00;;;;;;5053562;28;20044;-47
2023/05/26 04:33:15;;;;;;;30.70;25.33;;;19.50;1.00;;;;;;5055618;28;20025;-46
2023/05/26 04:35:44;;;;;;;34.03;27.80;;;19.50;1.00;;;;;;5054789;28;20108;-47
2023/05/26 04:38:12;;;;;;;31.20;26.08;;;19.50;1.00;;;;;;5055549;28;20049;-46
2023/05/26 04:40:39;;;;;;;31.17;25.02;;;19.50;1.00;;;;;;5051573;28;20105;-47
2023/05/26 04:43:05;;;;;;;31.77;26.92;;;19.50;1.00;;;;;;5055692;28;20104;-45
2023/05/26 04:45:33;;;;;;;34.05;26.63;;;19.50;1.00;;;;;;5054419;28;20041;-45
2023/05/26 04:47:59;;;;;;;30.95;26.90;;;19.50;1.00;;;;;;5052860;28;20017;-48
2023/05/26 04:50:25;;;;;;;36.10;26.65;;;19.40;1.00;;;;;;5049918;28;20036;-45
2023/05/26 04:52:50;;;;;;;33.72;28.17;;;19.40;1.00;;;;;;5055130;28;20021;-45
2023/05/26 04:55:16;;;;;;;31.15;24.83;;;19.50;1.00;;;;;;5052490;28;20112;-46
2023/05/26 04:57:43;;;;;;;31.98;26.77;;;19.40;1.00;;;;;;5055007;28;20135;-45
2023/05/26 05:00:10;;;;;;;33.25;27.67;;;19.50;1.00;;;;;;5052454;28;20036;-46
2023/05/26 05:02:36;;;;;;;33.05;27.20;;;19.40;1.00;;;;;;5050151;28;20559;-47
2023/05/26 05:05:02;;;;;;;34.95;27.70;;;19.40;1.00;;;;;;5055025;28;20029;-46
2023/05/26 05:07:28;;;;;;;35.67;27.70;;;19.50;1.00;;;;;;5054074;28;20479;-46
2023/05/26 05:09:53;;;;;;;34.15;29.08;;;19.50;1.00;;;;;;5054274;28;20016;-47
2023/05/26 05:12:19;;;;;;;33.95;26.73;;;19.50;1.00;;;;;;5051698;28;20037;-45
2023/05/26 05:14:45;;;;;;;35.13;28.25;;;19.40;1.00;;;;;;5051203;28;20024;-45
2023/05/26 05:17:10;;;;;;;31.00;26.33;;;19.50;1.00;;;;;;5042650;28;20036;-46
2023/05/26 05:19:36;;;;;;;32.72;26.02;;;19.50;1.00;;;;;;5046122;28;20037;-47
2023/05/26 05:22:02;;;;;;;32.28;26.48;;;19.50;1.00;;;;;;5052138;28;20029;-46
2023/05/26 05:24:27;;;;;;;34.53;27.80;;;19.60;1.00;;;;;;5054940;28;20139;-45
2023/05/26 05:26:53;;;;;;;33.60;26.60;;;19.50;1.00;;;;;;5052314;28;20032;-45
2023/05/26 05:29:19;;;;;;;29.85;26.05;;;19.50;1.00;;;;;;5054661;28;20048;-47
2023/05/26 05:31:44;;;;;;;32.55;26.67;;;19.50;1.00;;;;;;5052815;28;20029;-44
2023/05/26 05:34:10;;;;;;;33.67;27.50;;;19.60;1.00;;;;;;5053229;28;20127;-46
2023/05/26 05:36:36;;;;;;;32.55;27.73;;;19.60;1.00;;;;;;5047248;28;20375;-47
2023/05/26 05:39:01;;;;;;;31.30;27.17;;;19.60;1.00;;;;;;5054151;28;20041;-44
2023/05/26 05:41:28;;;;;;;32.65;26.58;;;19.60;1.00;;;;;;5053345;28;20450;-45
2023/05/26 05:43:56;;;;;;;30.35;25.30;;;19.60;1.00;;;;;;5054096;28;20025;-46
2023/05/26 05:46:26;;;;;;;35.58;26.27;;;19.60;1.00;;;;;;5052178;28;20037;-44
2023/05/26 05:48:51;;;;;;;33.70;27.20;;;19.60;1.00;;;;;;5054437;28;20028;-45
2023/05/26 05:51:17;;;;;;;35.58;28.48;;;19.70;1.00;;;;;;5051938;28;20490;-45
2023/05/26 05:53:44;;;;;;;33.28;27.42;;;19.60;1.00;;;;;;5054046;28;20364;-44
2023/05/26 05:56:09;;;;;;;35.53;26.75;;;19.70;1.00;;;;;;5049609;28;20032;-47
2023/05/26 05:58:35;;;;;;;29.60;24.60;;;19.70;1.00;;;;;;5053748;28;20375;-44
2023/05/26 06:01:01;;;;;;;33.08;27.17;;;19.70;1.00;;;;;;5043094;28;20065;-44
2023/05/26 06:03:26;;;;;;;32.40;25.40;;;19.80;1.00;;;;;;5053909;28;20101;-44
2023/05/26 06:05:52;;;;;;;30.67;25.02;;;19.80;1.00;;;;;;5052662;28;20500;-47
2023/05/26 06:08:18;;;;;;;30.02;24.40;;;19.70;1.00;;;;;;5042294;28;20070;-47
2023/05/26 06:10:44;;;;;;;28.83;24.17;;;19.80;1.00;;;;;;5051851;28;20020;-44
2023/05/26 06:13:10;;;;;;;33.13;25.38;;;19.80;1.00;;;;;;5052267;28;20107;-46
2023/05/26 06:15:35;;;;;;;30.10;23.20;;;19.80;1.00;;;;;;5052653;28;20110;-44
2023/05/26 06:18:01;;;;;;;31.08;23.90;;;19.80;1.00;;;;;;5053509;28;20032;-44
2023/05/26 06:20:27;;;;;;;28.80;22.83;;;19.80;1.00;;;;;;5051115;28;20021;-45
2023/05/26 06:22:52;;;;;;;29.42;23.50;;;19.80;1.00;;;;;;5051916;28;20021;-44
2023/05/26 06:25:18;;;;;;;28.77;22.88;;;19.80;1.00;;;;;;5051006;28;20036;-46
2023/05/26 06:27:44;;;;;;;28.63;23.27;;;19.90;1.00;;;;;;5051304;28;20383;-49
2023/05/26 06:30:10;;;;;;;28.73;23.00;;;19.90;1.00;;;;;;5052613;28;20033;-49
2023/05/26 06:32:36;;;;;;;29.38;22.95;;;20.00;1.00;;;;;;5039376;28;20017;-46
2023/05/26 06:35:02;;;;;;;29.95;23.60;;;20.00;1.00;;;;;;5052372;28;20029;-48
2023/05/26 06:37:47;;;;;;;29.70;22.00;;;20.00;1.00;;;;;;5050978;28;20025;-46
2023/05/26 06:40:12;;;;;;;25.63;21.55;;;20.10;1.00;;;;;;5043184;28;20092;-46
2023/05/26 06:42:38;;;;;;;29.23;22.20;;;20.10;1.00;;;;;;5053202;28;20359;-45
2023/05/26 06:45:04;;;;;;;25.38;21.92;;;20.10;1.00;;;;;;5051819;28;20073;-45
2023/05/26 06:47:30;;;;;;;27.63;22.35;;;20.10;1.00;;;;;;5051874;28;20386;-45
2023/05/26 06:49:55;;;;;;;26.92;21.02;;;20.10;1.00;;;;;;5052365;28;20116;-47
2023/05/26 06:52:21;;;;;;;24.15;21.38;;;20.20;1.00;;;;;;5051140;28;20432;-48
2023/05/26 06:54:47;;;;;;;23.02;19.70;;;20.20;1.00;;;;;;5053146;28;20028;-49
2023/05/26 06:57:13;;;;;;;24.48;20.00;;;20.30;1.00;;;;;;5052008;28;20060;-45
2023/05/26 06:59:41;;;;;;;22.08;18.40;;;20.30;1.00;;;;;;5050661;28;20032;-44
2023/05/26 07:02:06;;;;;;;18.58;16.60;;;20.30;1.00;;;;;;5052024;28;20051;-60
2023/05/26 07:04:32;;;;;;;22.10;16.25;;;20.30;1.00;;;;;;5052581;28;20029;-59
2023/05/26 07:06:58;;;;;;;19.70;16.42;;;20.40;1.00;;;;;;5051615;28;20021;-63
2023/05/26 07:09:24;;;;;;;22.50;17.30;;;20.40;1.00;;;;;;5052528;28;20513;-61
2023/05/26 07:11:49;;;;;;;19.73;15.10;;;20.40;1.00;;;;;;5049065;28;20021;-57
2023/05/26 07:14:15;;;;;;;20.35;16.17;;;20.50;1.00;;;;;;5038491;28;20021;-60
2023/05/26 07:16:41;;;;;;;22.90;17.23;;;20.50;1.00;;;;;;5042435;28;20026;-58
2023/05/26 07:19:06;;;;;;;18.60;14.43;;;20.60;1.00;;;;;;5049044;28;20036;-58
2023/05/26 07:21:32;;;;;;;20.40;15.75;;;20.60;1.00;;;;;;5050776;28;20025;-50
2023/05/26 07:23:58;;;;;;;19.05;16.00;;;20.70;1.00;;;;;;5053030;28;20378;-45
2023/05/26 07:26:24;;;;;;;16.75;14.68;;;20.70;1.00;;;;;;5049843;28;20037;-55
2023/05/26 07:28:50;;;;;;;18.35;15.20;;;20.70;1.00;;;;;;5052923;28;20032;-56
2023/05/26 07:31:17;;;;;;;19.27;15.20;;;20.80;1.00;;;;;;5051164;28;20032;-49
2023/05/26 07:33:43;;;;;;;17.48;14.63;;;20.80;1.00;;;;;;5050456;28;20429;-46
2023/05/26 07:36:08;;;;;;;16.55;13.60;;;20.90;1.00;;;;;;5034171;28;20043;-46
2023/05/26 07:38:34;;;;;;;15.45;12.57;;;20.90;1.00;;;;;;5052513;28;20128;-46
2023/05/26 07:41:00;;;;;;;20.00;15.48;;;20.90;1.00;;;;;;5051524;28;20549;-63
2023/05/26 07:43:25;;;;;;;19.02;14.57;;;21.00;1.00;;;;;;5051513;28;20046;-63
2023/05/26 07:45:51;;;;;;;18.85;13.13;;;21.00;1.00;;;;;;5049197;28;20063;-61
2023/05/26 07:48:17;;;;;;;22.27;13.77;;;21.10;1.00;;;;;;5052824;28;20060;-51
2023/05/26 07:50:42;;;;;;;17.55;13.63;;;21.10;1.00;;;;;;5051394;28;20033;-46
2023/05/26 07:53:08;;;;;;;16.52;13.38;;;21.10;1.00;;;;;;5051051;28;20060;-58
2023/05/26 07:55:34;;;;;;;17.20;14.13;;;21.20;1.00;;;;;;5051934;28;20029;-57
2023/05/26 07:58:00;;;;;;;18.15;13.30;;;21.20;1.00;;;;;;5051226;28;20021;-48
2023/05/26 08:00:26;;;;;;;14.80;12.98;;;21.20;1.00;;;;;;5049675;28;20037;-48
2023/05/26 08:02:53;;;;;;;19.40;14.02;;;21.30;1.00;;;;;;5050609;28;20028;-58
2023/05/26 08:05:18;;;;;;;17.65;12.90;;;21.30;1.00;;;;;;5049498;28;20036;-51
2023/05/26 08:07:44;;;;;;;17.52;13.00;;;21.30;1.00;;;;;;5050848;28;20367;-47
2023/05/26 08:10:10;;;;;;;16.13;12.57;;;21.40;1.00;;;;;;5051479;28;20061;-59
2023/05/26 08:12:36;;;;;;;18.75;11.43;;;21.40;1.00;;;;;;5051565;28;20384;-60
2023/05/26 08:15:15;;;;;;;17.65;12.27;;;21.50;1.00;;;;;;5050511;28;20086;-44
2023/05/26 08:17:42;;;;;;;16.85;12.80;;;21.60;1.00;;;;;;5052406;28;20033;-43
2023/05/26 08:20:09;;;;;;;15.50;10.85;;;21.60;1.00;;;;;;5050537;28;20025;-45
2023/05/26 08:22:35;;;;;;;14.57;11.98;;;21.60;1.00;;;;;;5055314;28;20056;-44
2023/05/26 08:25:01;;;;;;;15.38;12.38;;;21.70;1.00;;;;;;5054402;28;20069;-44
2023/05/26 08:27:27;;;;;;;17.67;12.15;;;21.70;1.00;;;;;;5055992;28;20082;-66
2023/05/26 08:29:53;;;;;;;13.63;11.60;;;21.70;1.00;;;;;;5054121;28;20037;-55
2023/05/26 08:32:18;;;;;;;13.93;10.63;;;21.80;1.00;;;;;;5054881;28;20091;-62
2023/05/26 08:34:44;;;;;;;14.23;11.57;;;21.80;1.00;;;;;;5053417;28;20025;-61
2023/05/26 08:37:11;;;;;;;14.68;11.35;;;21.80;1.00;;;;;;5052043;28;20036;-68
2023/05/26 08:39:37;;;;;;;15.15;12.93;;;21.90;1.00;;;;;;5055595;28;20402;-66
2023/05/26 08:42:10;;;;;;;18.08;12.60;;;21.90;1.00;;;;;;5053334;28;20033;-45
2023/05/26 08:44:36;;;;;;;16.02;11.38;;;21.90;1.00;;;;;;5042353;28;20087;-65
2023/05/26 08:47:05;;;;;;;11.98;10.70;;;22.00;1.00;;;;;;5053571;28;20033;-64
2023/05/26 08:49:52;;;;;;;15.48;11.82;;;22.00;1.00;;;;;;5055358;28;20471;-62
2023/05/26 08:52:19;;;;;;;13.25;11.82;;;22.10;1.00;;;;;;5049114;28;20505;-51
2023/05/26 08:54:45;;;;;;;14.18;10.80;;;22.10;1.00;;;;;;5052271;28;20120;-50
2023/05/26 08:57:12;;;;;;;16.67;11.82;;;22.10;1.00;;;;;;5055157;28;20025;-47
2023/05/26 08:59:40;;;;;;;13.77;11.10;;;22.20;1.00;;;;;;5054024;28;20029;-45
2023/05/26 09:02:06;;;;;;;16.23;11.23;;;22.30;1.00;;;;;;5046111;28;20545;-45
2023/05/26 09:04:32;;;;;;;14.18;11.63;;;22.30;1.00;;;;;;5053026;28;20031;-45
2023/05/26 09:06:58;;;;;;;15.38;11.93;;;22.30;1.00;;;;;;5052977;28;20120;-44
2023/05/26 09:09:24;;;;;;;16.38;12.35;;;22.40;1.00;;;;;;5052793;28;20036;-59
2023/05/26 09:11:51;;;;;;;18.40;12.52;;;22.50;1.00;;;;;;5054903;28;20060;-59
2023/05/26 09:14:19;;;;;;;16.27;11.30;;;22.50;1.00;;;;;;5053496;28;20090;-59
2023/05/26 09:16:45;;;;;;;14.32;12.00;;;22.50;1.00;;;;;;5054695;28;20021;-55
2023/05/26 09:19:16;;;;;;;12.68;10.68;;;22.60;1.00;;;;;;5053323;28;20040;-55
2023/05/26 09:21:49;;;;;;;13.10;11.80;;;22.60;1.00;;;;;;5049787;28;20024;-51
2023/05/26 09:24:17;;;;;;;18.45;11.90;;;22.60;1.00;;;;;;5052909;28;20032;-56
2023/05/26 09:26:48;;;;;;;17.33;11.25;;;22.70;1.00;;;;;;5054919;28;20033;-56
2023/05/26 09:29:15;;;;;;;13.07;11.75;;;22.70;1.00;;;;;;5045042;28;20097;-51
2023/05/26 09:31:51;;;;;;;15.95;10.93;;;22.70;1.00;;;;;;5044480;28;20029;-54
2023/05/26 09:34:21;;;;;;;17.20;11.73;;;22.80;1.00;;;;;;5056289;28;20087;-53
2023/05/26 09:36:46;;;;;;;14.43;11.02;;;22.80;1.00;;;;;;5056679;28;20028;-47
2023/05/26 09:39:13;;;;;;;14.43;9.98;;;22.80;1.00;;;;;;5054124;28;20048;-52
2023/05/26 09:41:44;;;;;;;17.60;12.75;;;22.80;1.00;;;;;;5053666;28;20032;-46
2023/05/26 09:44:13;;;;;;;16.45;11.40;;;22.90;1.00;;;;;;5051607;28;20051;-58
2023/05/26 09:46:40;;;;;;;17.98;12.45;;;23.00;1.00;;;;;;5055738;28;20039;-48
2023/05/26 09:49:17;;;;;;;14.85;12.38;;;23.10;1.00;;;;;;5056811;28;20013;-52
2023/05/26 09:51:48;;;;;;;16.35;12.32;;;23.10;1.00;;;;;;5054376;28;20056;-57
2023/05/26 09:54:14;;;;;;;13.05;10.63;;;23.20;1.00;;;;;;5050461;28;20029;-63
2023/05/26 09:56:56;;;;;;;15.90;12.07;;;23.30;1.00;;;;;;5050105;28;20032;-60
2023/05/26 09:59:31;;;;;;;17.13;13.20;;;23.30;1.00;;;;;;5050838;28;20036;-48
2023/05/26 10:01:57;;;;;;;16.52;11.75;;;23.40;1.00;;;;;;5053898;28;20036;-61
2023/05/26 10:04:24;;;;;;;14.40;11.38;;;23.40;1.00;;;;;;5054040;28;20063;-57
2023/05/26 10:06:52;;;;;;;16.88;14.05;;;23.50;1.00;;;;;;5056833;28;20383;-52
2023/05/26 10:09:22;;;;;;;19.70;13.13;;;23.60;1.00;;;;;;5051993;28;20029;-61
2023/05/26 10:11:50;;;;;;;15.50;12.90;;;23.70;1.00;;;;;;5053887;28;20070;-59
2023/05/26 10:14:16;;;;;;;16.30;13.20;;;23.80;1.00;;;;;;5052111;28;20017;-57
2023/05/26 10:16:43;;;;;;;15.02;12.77;;;23.80;1.00;;;;;;5053601;28;20494;-59
2023/05/26 10:19:09;;;;;;;15.70;12.95;;;23.90;1.00;;;;;;5053663;28;20478;-63
2023/05/26 10:21:43;;;;;;;15.68;12.10;;;23.90;1.00;;;;;;5050527;28;20478;-63
2023/05/26 10:24:19;;;;;;;16.27;12.45;;;24.00;1.00;;;;;;5038484;28;20036;-67
2023/05/26 10:27:00;;;;;;;13.73;11.82;;;24.10;1.00;;;;;;5051494;28;20090;-62
2023/05/26 10:29:33;;;;;;;18.58;11.38;;;24.10;1.00;;;;;;5041471;28;20078;-55
2023/05/26 10:31:59;;;;;;;12.85;11.23;;;24.30;1.00;;;;;;5052221;28;20076;-63
2023/05/26 10:34:45;;;;;;;12.98;10.70;;;24.20;1.00;;;;;;5040666;28;20517;-58
2023/05/26 10:37:16;;;;;;;13.85;12.35;;;24.30;1.00;;;;;;5051656;28;20479;-59
2023/05/26 10:39:42;;;;;;;13.98;11.77;;;24.40;1.00;;;;;;5052113;28;20060;-61
2023/05/26 10:42:20;;;;;;;16.55;11.52;;;24.50;1.00;;;;;;5051757;28;20379;-62
2023/05/26 10:44:54;;;;;;;12.25;10.95;;;24.50;1.00;;;;;;5052063;28;20032;-58
2023/05/26 10:47:20;;;;;;;12.15;11.00;;;24.60;1.00;;;;;;5051927;28;20039;-55
2023/05/26 10:50:38;;;;;;;12.38;10.85;;;24.70;1.00;;;;;;5042175;28;20017;-61
2023/05/26 10:53:20;;;;;;;13.25;9.18;;;24.80;1.00;;;;;;5034914;28;20040;-50
2023/05/26 10:56:03;;;;;;;14.10;9.95;;;24.80;1.00;;;;;;5050258;28;20025;-48
2023/05/26 10:58:38;;;;;;;9.23;8.32;;;25.00;1.00;;;;;;5044264;28;20040;-49
2023/05/26 11:01:06;;;;;;;9.40;8.45;;;25.10;1.00;;;;;;5049998;28;20100;-59
2023/05/26 11:03:33;;;;;;;9.73;8.23;;;25.20;1.00;;;;;;5052988;28;20029;-47
2023/05/26 11:05:59;;;;;;;10.40;8.60;;;25.40;1.00;;;;;;5051718;28;20095;-47
2023/05/26 11:08:25;;;;;;;11.07;9.98;;;25.60;1.00;;;;;;5053256;28;20036;-60
2023/05/26 11:11:02;;;;;;;10.32;9.27;;;25.70;1.00;;;;;;5049957;28;20025;-60
2023/05/26 11:14:12;;;;;;;12.82;8.55;;;25.90;1.00;;;;;;5047510;28;20022;-60
2023/05/26 11:16:40;;;;;;;11.32;9.82;;;26.10;1.00;;;;;;5048897;28;20028;-60
2023/05/26 11:19:08;;;;;;;11.05;8.73;;;26.10;1.00;;;;;;5051557;28;20047;-60
2023/05/26 11:21:35;;;;;;;10.20;7.93;;;26.30;1.00;;;;;;5052821;28;20060;-60
2023/05/26 11:24:02;;;;;;;8.32;7.05;;;26.60;1.00;;;;;;5050853;28;20033;-60
2023/05/26 11:26:30;;;;;;;11.25;7.82;;;26.80;1.00;;;;;;5050253;28;20491;-60
2023/05/26 11:28:57;;;;;;;9.20;7.40;;;27.10;1.00;;;;;;5038578;28;20020;-60
2023/05/26 11:31:27;;;;;;;13.13;9.95;;;27.40;1.00;;;;;;5050906;28;20032;-61
2023/05/26 11:33:54;;;;;;;9.90;7.65;;;27.70;1.00;;;;;;5052957;28;20025;-58
2023/05/26 11:36:20;;;;;;;10.40;8.55;;;27.90;1.00;;;;;;5050931;28;20044;-59
2023/05/26 11:38:57;;;;;;;11.80;10.15;;;28.40;99.90;;;;;;5049128;28;20037;-59
2023/05/26 11:41:25;;;;;;;13.00;11.60;;;28.80;99.90;;;;;;5052720;28;20041;-59
2023/05/26 11:43:53;;;;;;;11.90;10.63;;;29.30;99.90;;;;;;5051603;28;20021;-59
2023/05/26 11:46:20;;;;;;;12.60;9.75;;;30.10;99.90;;;;;;5050921;28;20394;-59
2023/05/26 11:48:46;;;;;;;11.95;8.65;;;31.20;99.90;;;;;;5049379;28;20024;-47
2023/05/26 11:51:13;;;;;;;15.45;13.85;;;32.80;99.90;;;;;;5050783;28;20043;-56
2023/05/26 11:53:40;;;;;;;12.77;11.57;;;34.20;99.90;;;;;;5048208;28;20029;-47
2023/05/26 11:56:08;;;;;;;15.50;13.20;;;35.30;99.90;;;;;;5049569;28;20052;-64
2023/05/26 11:58:40;;;;;;;15.15;13.60;;;35.50;99.90;;;;;;5045562;28;20017;-60
2023/05/26 12:01:07;;;;;;;10.27;9.15;;;35.60;99.90;;;;;;5056348;28;20505;-58
2023/05/26 12:03:37;;;;;;;10.32;9.32;;;35.70;99.90;;;;;;5056360;28;20029;-57
2023/05/26 12:06:15;;;;;;;13.82;11.80;;;36.00;99.90;;;;;;5056456;28;20043;-55
2023/05/26 12:08:58;;;;;;;10.38;8.63;;;37.30;99.90;;;;;;5049923;28;20017;-49
2023/05/26 12:11:35;;;;;;;13.70;12.40;;;39.30;99.90;;;;;;5053488;28;20029;-49
2023/05/26 12:14:11;;;;;;;11.00;9.88;;;39.70;99.90;;;;;;5045523;28;20051;-46
2023/05/26 12:16:41;;;;;;;11.63;9.20;;;39.90;99.90;;;;;;5054207;28;20202;-48
2023/05/26 12:19:12;;;;;;;11.13;8.80;;;40.70;99.90;;;;;;5052957;28;20036;-55
2023/05/26 12:21:45;;;;;;;8.52;7.72;;;42.30;99.90;;;;;;5053823;28;20417;-61
2023/05/26 12:24:11;;;;;;;9.52;8.43;;;42.90;99.90;;;;;;5040227;28;20040;-49
2023/05/26 12:26:37;;;;;;;10.95;8.00;;;43.10;99.90;;;;;;5054808;28;20080;-50
2023/05/26 12:29:17;;;;;;;12.13;8.18;;;43.90;99.90;;;;;;5054830;28;20139;-60
2023/05/26 12:31:50;;;;;;;12.43;9.68;;;43.50;99.90;;;;;;5050225;28;20551;-54
2023/05/26 12:34:21;;;;;;;9.43;8.43;;;43.10;99.90;;;;;;5055733;28;20486;-46
2023/05/26 12:36:48;;;;;;;13.63;10.60;;;41.30;99.90;;;;;;5053682;28;20497;-60
2023/05/26 12:39:15;;;;;;;10.63;8.32;;;39.80;99.90;;;;;;5040288;28;20094;-61
2023/05/26 12:41:41;;;;;;;9.98;9.07;;;38.70;99.90;;;;;;5054520;28;20032;-61